Time;durP1;ratioP1;P1;durP2;ratioP2;P2;SDS_P1;SDS_P2;PMS_P1;PMS_P2;Temp;Humidity;BMP_temperature;BMP_pressure;BME280_temperature;BME280_humidity;BME280_pressure;Samples;Min_cycle;Max_cycle;Signal;HPM_P1;HPM_P2
2022/06/15 00:00:19;;;;;;;;;;;;;;;28.90;37.32;100928.53;5057358;28;1009;-43
2022/06/15 00:02:44;;;;;;;;;;;;;;;28.83;37.60;100920.34;5057839;28;1135;-42
2022/06/15 00:05:09;;;;;;;;;;;;;;;28.81;37.70;100906.19;5056975;28;969;-43
2022/06/15 00:07:35;;;;;;;;;;;;;;;28.87;37.56;100918.94;5057728;28;997;-43
2022/06/15 00:10:00;;;;;;;;;;;;;;;28.80;37.89;100918.03;5057861;28;1045;-43
2022/06/15 00:12:26;;;;;;;;;;;;;;;28.84;38.04;100912.03;5056916;28;1105;-43
2022/06/15 00:14:51;;;;;;;;;;;;;;;28.84;37.93;100914.72;5038690;28;1085;-43
2022/06/15 00:17:16;;;;;;;;;;;;;;;28.84;37.68;100912.03;5055628;28;958;-42
2022/06/15 00:19:42;;;;;;;;;;;;;;;28.84;37.49;100919.34;5057121;28;1969;-43
2022/06/15 00:22:07;;;;;;;;;;;;;;;28.85;37.56;100921.00;5057061;28;940;-43
2022/06/15 00:24:32;;;;;;;;;;;;;;;28.82;37.40;100922.22;5057013;28;1500;-42
2022/06/15 00:26:57;;;;;;;;;;;;;;;28.84;37.49;100932.88;5057172;28;1056;-43
2022/06/15 00:29:23;;;;;;;;;;;;;;;28.80;37.35;100940.53;5057349;28;993;-42
2022/06/15 00:31:48;;;;;;;;;;;;;;;28.83;37.40;100942.84;5057043;28;950;-43
2022/06/15 00:34:13;;;;;;;;;;;;;;;28.73;37.44;100948.56;5056542;28;1002;-42
2022/06/15 00:36:39;;;;;;;;;;;;;;;28.87;37.51;100946.03;5056082;28;1140;-43
2022/06/15 00:39:04;;;;;;;;;;;;;;;28.86;37.59;100941.66;5056896;28;1898;-42
2022/06/15 00:41:30;;;;;;;;;;;;;;;28.85;37.50;100932.69;5056154;28;1156;-44
2022/06/15 00:43:56;;;;;;;;;;;;;;;28.86;37.54;100933.53;5055138;28;886;-42
2022/06/15 00:46:54;;;;;;;;;;;;;;;28.87;37.33;100940.59;5056788;28;1219;-43
2022/06/15 00:49:19;;;;;;;;;;;;;;;28.79;37.67;100938.88;5012108;28;1259;-43
2022/06/15 00:51:48;;;;;;;;;;;;;;;28.89;37.34;100929.59;5054840;28;997;-42
2022/06/15 00:54:13;;;;;;;;;;;;;;;28.83;37.51;100928.47;5038506;28;974;-42
2022/06/15 00:56:39;;;;;;;;;;;;;;;28.89;37.03;100922.31;5037846;28;1089;-43
2022/06/15 00:59:07;;;;;;;;;;;;;;;28.83;37.28;100925.75;5056827;28;1980;-42
2022/06/15 01:01:32;;;;;;;;;;;;;;;28.84;37.23;100919.34;5056786;28;990;-43
2022/06/15 01:03:57;;;;;;;;;;;;;;;28.85;37.13;100929.97;5038825;28;998;-43
2022/06/15 01:06:32;;;;;;;;;;;;;;;28.84;37.40;100930.16;5055888;28;1123;-42
2022/06/15 01:09:06;;;;;;;;;;;;;;;28.89;37.22;100940.41;5038181;28;1195;-43
2022/06/15 01:11:38;;;;;;;;;;;;;;;28.90;37.61;100932.09;5038540;28;1085;-43
2022/06/15 01:14:16;;;;;;;;;;;;;;;28.83;37.47;100942.00;5037548;28;1142;-42
2022/06/15 01:16:44;;;;;;;;;;;;;;;28.79;37.49;100943.44;5055933;28;1048;-43
2022/06/15 01:19:19;;;;;;;;;;;;;;;28.80;37.62;100936.97;5055667;28;1918;-42
2022/06/15 01:21:51;;;;;;;;;;;;;;;28.83;37.67;100942.00;5038012;28;1070;-43
2022/06/15 01:24:55;;;;;;;;;;;;;;;28.85;37.33;100929.13;5037955;28;970;-42
2022/06/15 01:27:58;;;;;;;;;;;;;;;28.83;37.17;100933.88;4982393;28;1187;-43
2022/06/15 01:30:42;;;;;;;;;;;;;;;28.83;37.16;100934.72;4899516;29;1052;-42
2022/06/15 01:33:27;;;;;;;;;;;;;;;28.81;37.25;100942.19;4944994;28;1170;-41
2022/06/15 01:35:52;;;;;;;;;;;;;;;28.79;37.41;100936.16;5008835;28;1078;-43
2022/06/15 01:38:37;;;;;;;;;;;;;;;28.87;37.22;100939.75;5056192;28;1912;-42
2022/06/15 01:41:18;;;;;;;;;;;;;;;28.88;37.22;100941.47;5055241;28;1295;-43
2022/06/15 01:43:45;;;;;;;;;;;;;;;28.85;37.35;100948.94;5031855;28;1034;-43
2022/06/15 01:46:11;;;;;;;;;;;;;;;28.89;37.18;100938.56;5037928;28;978;-42
2022/06/15 01:48:36;;;;;;;;;;;;;;;28.85;37.30;100945.38;5030884;28;1401;-42
2022/06/15 01:51:07;;;;;;;;;;;;;;;28.89;37.28;100940.41;5054106;28;1069;-42
2022/06/15 01:53:36;;;;;;;;;;;;;;;28.84;37.34;100939.09;5036000;28;1137;-42
2022/06/15 01:56:19;;;;;;;;;;;;;;;28.86;36.88;100928.13;5031122;28;1065;-42
2022/06/15 01:58:45;;;;;;;;;;;;;;;28.89;36.65;100943.97;5038004;28;1913;-42
2022/06/15 02:01:37;;;;;;;;;;;;;;;28.90;36.52;100945.63;5055627;28;986;-43
2022/06/15 02:04:05;;;;;;;;;;;;;;;28.90;36.91;100950.22;5024168;28;1149;-43
2022/06/15 02:06:31;;;;;;;;;;;;;;;28.88;36.94;100950.41;5037385;28;1350;-42
2022/06/15 02:08:58;;;;;;;;;;;;;;;28.84;36.84;100951.81;5055597;28;1124;-42
2022/06/15 02:11:28;;;;;;;;;;;;;;;28.84;36.86;100951.81;5052893;28;989;-42
2022/06/15 02:13:56;;;;;;;;;;;;;;;28.77;36.73;100957.16;5053965;28;1053;-42
2022/06/15 02:16:48;;;;;;;;;;;;;;;28.87;36.81;100954.16;5054274;28;1013;-42
2022/06/15 02:19:14;;;;;;;;;;;;;;;28.89;36.90;100959.38;5024173;28;1957;-43
2022/06/15 02:21:39;;;;;;;;;;;;;;;28.87;37.09;100959.56;5037536;28;927;-43
2022/06/15 02:24:05;;;;;;;;;;;;;;;28.92;36.95;100946.28;5037084;28;1211;-42
2022/06/15 02:26:35;;;;;;;;;;;;;;;28.90;37.08;100950.22;5036812;28;896;-43
2022/06/15 02:29:04;;;;;;;;;;;;;;;28.89;36.94;100946.69;5055206;28;1037;-43
2022/06/15 02:31:30;;;;;;;;;;;;;;;28.87;36.92;100948.72;5055047;28;1227;-42
2022/06/15 02:33:56;;;;;;;;;;;;;;;28.88;36.80;100949.59;5055121;28;989;-43
2022/06/15 02:36:22;;;;;;;;;;;;;;;28.90;36.80;100959.19;5054604;28;1219;-42
2022/06/15 02:38:49;;;;;;;;;;;;;;;28.89;36.87;100964.78;5055022;28;1955;-43
2022/06/15 02:41:16;;;;;;;;;;;;;;;28.93;36.48;100969.63;5054789;28;1120;-43
2022/06/15 02:43:42;;;;;;;;;;;;;;;28.89;36.75;100965.63;5055912;28;946;-42
2022/06/15 02:46:07;;;;;;;;;;;;;;;28.94;36.78;100965.91;5037176;28;1092;-43
2022/06/15 02:48:33;;;;;;;;;;;;;;;28.91;36.69;100976.28;5054824;28;1132;-43
2022/06/15 02:51:07;;;;;;;;;;;;;;;28.91;36.91;100965.44;5054869;28;881;-43
2022/06/15 02:53:32;;;;;;;;;;;;;;;28.88;36.91;100977.47;5055236;28;1128;-43
2022/06/15 02:55:58;;;;;;;;;;;;;;;28.85;36.89;100973.28;5037146;28;1021;-44
2022/06/15 02:58:30;;;;;;;;;;;;;;;28.90;36.54;100972.72;5036871;28;1955;-43
2022/06/15 03:00:56;;;;;;;;;;;;;;;28.82;36.83;100975.53;5055223;28;998;-42
2022/06/15 03:03:22;;;;;;;;;;;;;;;28.84;36.92;100970.78;5054830;28;1140;-42
2022/06/15 03:05:49;;;;;;;;;;;;;;;28.80;35.89;100981.13;5057108;28;1070;-43
2022/06/15 03:08:14;;;;;;;;;;;;;;;28.85;36.78;100983.28;5040963;28;982;-43
2022/06/15 03:10:39;;;;;;;;;;;;;;;28.87;36.82;100988.50;5057387;28;1214;-43
2022/06/15 03:13:05;;;;;;;;;;;;;;;28.83;36.71;100977.19;5055667;28;1398;-43
2022/06/15 03:15:31;;;;;;;;;;;;;;;28.58;38.45;100982.91;5057776;28;1612;-42
2022/06/15 03:17:56;;;;;;;;;;;;;;;28.55;39.12;100978.72;5056248;28;1894;-42
2022/06/15 03:20:22;;;;;;;;;;;;;;;28.57;39.41;100976.69;5058464;28;1072;-42
2022/06/15 03:22:48;;;;;;;;;;;;;;;28.48;39.69;100978.66;5058605;28;997;-42
2022/06/15 03:25:13;;;;;;;;;;;;;;;28.43;39.80;100977.50;5058500;28;1068;-42
2022/06/15 03:27:38;;;;;;;;;;;;;;;28.47;39.49;100982.38;5058481;28;1069;-41
2022/06/15 03:30:06;;;;;;;;;;;;;;;28.41;39.87;100985.81;5058269;28;1025;-42
2022/06/15 03:32:31;;;;;;;;;;;;;;;28.39;40.14;100981.63;5057199;28;1136;-43
2022/06/15 03:34:57;;;;;;;;;;;;;;;28.01;39.51;100982.50;5056232;28;1542;-46
2022/06/15 03:37:22;;;;;;;;;;;;;;;28.01;39.36;100988.72;5058392;28;1017;-44
2022/06/15 03:39:48;;;;;;;;;;;;;;;27.36;39.33;100992.56;5057917;28;1961;-45
2022/06/15 03:42:14;;;;;;;;;;;;;;;27.42;39.19;100984.78;5057927;28;1219;-44
2022/06/15 03:44:39;;;;;;;;;;;;;;;27.43;39.12;100992.69;5057864;28;1236;-45
2022/06/15 03:47:07;;;;;;;;;;;;;;;27.37;39.27;100990.72;5057448;28;1509;-46
2022/06/15 03:49:33;;;;;;;;;;;;;;;27.32;38.85;100996.66;5055272;28;922;-45
2022/06/15 03:51:58;;;;;;;;;;;;;;;27.34;38.91;100996.50;5058064;28;1061;-45
2022/06/15 03:54:23;;;;;;;;;;;;;;;27.23;38.66;100992.31;5057621;28;1163;-46
2022/06/15 03:56:49;;;;;;;;;;;;;;;26.74;39.81;100994.22;5056774;28;1367;-41
2022/06/15 03:59:14;;;;;;;;;;;;;;;27.23;38.96;100995.88;5058056;28;1902;-43
2022/06/15 04:01:39;;;;;;;;;;;;;;;27.33;38.59;100992.94;5057810;28;1064;-43
2022/06/15 04:04:04;;;;;;;;;;;;;;;27.28;38.40;100991.81;5055713;28;1355;-42
2022/06/15 04:06:30;;;;;;;;;;;;;;;27.48;38.05;101005.66;5056202;28;1140;-43
2022/06/15 04:08:55;;;;;;;;;;;;;;;27.65;37.58;101008.25;5057012;28;1095;-43
2022/06/15 04:14:04;;;;;;;;;;;;;;;27.69;37.46;101004.22;5053214;28;922;-43
2022/06/15 04:16:30;;;;;;;;;;;;;;;27.75;37.09;101003.47;5052347;28;1068;-43
2022/06/15 04:18:56;;;;;;;;;;;;;;;27.71;37.34;101005.69;5057970;28;1898;-43
2022/06/15 04:21:21;;;;;;;;;;;;;;;27.75;37.13;101009.75;5057389;28;1215;-42
2022/06/15 04:23:46;;;;;;;;;;;;;;;27.75;37.42;101009.75;5057945;28;1009;-43
2022/06/15 04:26:12;;;;;;;;;;;;;;;27.87;37.14;101002.06;5039743;28;1184;-43
2022/06/15 04:28:37;;;;;;;;;;;;;;;27.96;37.29;101001.97;5057235;28;985;-43
2022/06/15 04:31:03;;;;;;;;;;;;;;;27.98;37.25;101005.31;5055770;28;1459;-43
2022/06/15 04:33:29;;;;;;;;;;;;;;;27.91;37.55;101001.69;5056401;28;1204;-42
2022/06/15 04:35:55;;;;;;;;;;;;;;;27.96;37.69;101008.19;5032277;28;903;-43
2022/06/15 04:38:20;;;;;;;;;;;;;;;27.81;37.10;101016.28;5031663;28;2032;-43
2022/06/15 04:40:45;;;;;;;;;;;;;;;27.75;36.91;101014.28;5053141;28;1197;-40
2022/06/15 04:43:10;;;;;;;;;;;;;;;27.81;37.25;101010.88;5057314;28;1057;-42
2022/06/15 04:45:36;;;;;;;;;;;;;;;27.83;36.95;101013.38;5054707;28;1065;-42
2022/06/15 04:48:01;;;;;;;;;;;;;;;27.93;36.78;101015.84;5053328;28;1151;-42
2022/06/15 04:50:27;;;;;;;;;;;;;;;27.97;36.51;101023.41;5056858;28;1120;-41
2022/06/15 04:52:52;;;;;;;;;;;;;;;27.97;36.75;101038.78;5053565;28;965;-42
2022/06/15 04:55:19;;;;;;;;;;;;;;;27.95;37.17;101030.00;5056457;28;1064;-43
2022/06/15 04:57:45;;;;;;;;;;;;;;;28.01;36.76;101031.16;5055794;28;1175;-42
2022/06/15 05:00:14;;;;;;;;;;;;;;;27.91;36.62;101034.13;5050080;28;1024;-42
2022/06/15 05:02:39;;;;;;;;;;;;;;;27.96;36.78;101039.81;5052237;28;1001;-41
2022/06/15 05:05:05;;;;;;;;;;;;;;;27.94;36.95;101044.56;5049385;28;1117;-40
2022/06/15 05:07:30;;;;;;;;;;;;;;;28.14;36.80;101053.03;5051585;28;1091;-41
2022/06/15 05:09:56;;;;;;;;;;;;;;;28.16;36.82;101052.84;5049592;28;1010;-42
2022/06/15 05:12:22;;;;;;;;;;;;;;;28.18;36.53;101048.91;5055472;28;1017;-43
2022/06/15 05:14:47;;;;;;;;;;;;;;;28.06;36.74;101051.22;5047449;28;1065;-43
2022/06/15 05:17:14;;;;;;;;;;;;;;;28.01;36.86;101050.09;5055488;28;1021;-43
2022/06/15 05:19:39;;;;;;;;;;;;;;;27.99;37.22;101069.22;5033952;28;1910;-43
2022/06/15 05:22:05;;;;;;;;;;;;;;;28.18;36.86;101064.28;5051883;28;1010;-43
2022/06/15 05:24:30;;;;;;;;;;;;;;;28.24;36.77;101075.22;5052692;28;1040;-43
2022/06/15 05:26:55;;;;;;;;;;;;;;;28.24;37.01;101069.81;5036799;28;1192;-41
2022/06/15 05:29:20;;;;;;;;;;;;;;;28.32;36.80;101074.34;5054508;28;1072;-42
2022/06/15 05:31:46;;;;;;;;;;;;;;;28.29;36.50;101074.69;5055262;28;1180;-43
2022/06/15 05:34:12;;;;;;;;;;;;;;;28.36;36.21;101078.38;5050044;28;961;-43
2022/06/15 05:36:37;;;;;;;;;;;;;;;28.38;36.60;101075.47;5054299;28;979;-42
2022/06/15 05:39:03;;;;;;;;;;;;;;;28.44;36.47;101082.88;5050073;28;1961;-43
2022/06/15 05:41:28;;;;;;;;;;;;;;;28.19;35.29;101077.66;5033895;28;1061;-42
2022/06/15 05:43:55;;;;;;;;;;;;;;;28.11;35.56;101075.03;5049430;28;1006;-42
2022/06/15 05:46:23;;;;;;;;;;;;;;;28.27;35.83;101084.00;5052347;28;1095;-42
2022/06/15 05:48:49;;;;;;;;;;;;;;;28.32;36.07;101089.72;5054829;28;1116;-42
2022/06/15 05:51:14;;;;;;;;;;;;;;;28.40;36.43;101092.38;5055151;28;1128;-42
2022/06/15 05:53:39;;;;;;;;;;;;;;;28.29;36.75;101096.34;5053656;28;1100;-42
2022/06/15 05:56:04;;;;;;;;;;;;;;;28.31;37.23;101093.44;5055198;28;1026;-43
2022/06/15 05:58:30;;;;;;;;;;;;;;;28.36;38.04;101097.31;5054999;28;1927;-41
2022/06/15 06:00:55;;;;;;;;;;;;;;;28.39;38.11;101096.13;5054713;28;1243;-43
2022/06/15 06:03:20;;;;;;;;;;;;;;;28.35;37.53;101100.19;5055286;28;1290;-40
2022/06/15 06:05:46;;;;;;;;;;;;;;;28.55;37.03;101100.53;5052267;28;1244;-42
2022/06/15 06:08:11;;;;;;;;;;;;;;;28.63;37.18;101107.72;5055127;28;1232;-40
2022/06/15 06:10:36;;;;;;;;;;;;;;;28.59;37.35;101106.41;5054691;28;1180;-43
2022/06/15 06:13:02;;;;;;;;;;;;;;;28.56;37.92;101101.38;5055048;28;1314;-41
2022/06/15 06:15:27;;;;;;;;;;;;;;;28.69;38.01;101106.13;5053718;28;1437;-43
2022/06/15 06:17:52;;;;;;;;;;;;;;;28.67;37.84;101106.31;5045995;28;1959;-43
2022/06/15 06:20:18;;;;;;;;;;;;;;;28.55;38.02;101105.94;5050650;28;1545;-43
2022/06/15 06:22:43;;;;;;;;;;;;;;;28.48;38.02;101107.69;5050289;28;1523;-43
2022/06/15 06:25:10;;;;;;;;;;;;;;;28.50;38.15;101110.19;5051891;28;1342;-42
2022/06/15 06:27:35;;;;;;;;;;;;;;;28.53;38.13;101113.38;5054746;28;1228;-42
2022/06/15 06:30:00;;;;;;;;;;;;;;;28.57;37.81;101120.13;5055023;28;1255;-40
2022/06/15 06:32:26;;;;;;;;;;;;;;;28.76;38.26;101112.47;5050798;28;1247;-43
2022/06/15 06:34:52;;;;;;;;;;;;;;;28.82;37.48;101114.47;5055327;28;1052;-38
2022/06/15 06:37:17;;;;;;;;;;;;;;;28.87;37.29;101110.34;5050806;28;938;-42
2022/06/15 06:39:43;;;;;;;;;;;;;;;28.95;37.38;101116.50;5055220;28;1969;-41
2022/06/15 06:42:09;;;;;;;;;;;;;;;28.86;37.13;101106.81;5057118;28;1345;-43
2022/06/15 06:44:36;;;;;;;;;;;;;;;28.81;38.00;101117.34;5055683;28;1337;-42
2022/06/15 06:47:01;;;;;;;;;;;;;;;28.87;38.36;101116.59;5055741;28;1377;-43
2022/06/15 06:49:26;;;;;;;;;;;;;;;29.02;38.05;101122.06;5058005;28;1089;-42
2022/06/15 06:51:52;;;;;;;;;;;;;;;29.08;37.58;101129.44;5055737;28;1033;-43
2022/06/15 06:54:18;;;;;;;;;;;;;;;29.05;36.92;101126.25;5058788;28;1223;-41
2022/06/15 06:56:43;;;;;;;;;;;;;;;29.15;37.10;101123.25;5058970;28;1014;-43
2022/06/15 06:59:09;;;;;;;;;;;;;;;29.25;36.09;101131.94;5049261;28;1910;-43
2022/06/15 07:01:35;;;;;;;;;;;;;;;29.16;36.69;101130.38;5051423;28;1017;-42
2022/06/15 07:04:00;;;;;;;;;;;;;;;29.24;37.18;101132.97;5034969;28;1064;-42
2022/06/15 07:06:25;;;;;;;;;;;;;;;29.21;37.44;101134.19;5051741;28;907;-41
2022/06/15 07:08:51;;;;;;;;;;;;;;;29.24;37.42;101126.72;5055804;28;970;-43
2022/06/15 07:11:16;;;;;;;;;;;;;;;29.07;37.41;101135.88;5058571;28;1152;-43
2022/06/15 07:13:42;;;;;;;;;;;;;;;29.11;35.95;101139.06;5054593;28;1239;-44
2022/06/15 07:16:07;;;;;;;;;;;;;;;29.08;36.51;101137.56;5055893;28;1323;-43
2022/06/15 07:18:33;;;;;;;;;;;;;;;29.08;37.06;101124.00;5055895;28;1893;-43
2022/06/15 07:21:05;;;;;;;;;;;;;;;29.08;37.21;101139.41;5057303;28;1041;-44
2022/06/15 07:23:30;;;;;;;;;;;;;;;29.07;37.51;101135.88;5053189;28;1061;-43
2022/06/15 07:25:55;;;;;;;;;;;;;;;29.12;37.35;101142.59;5058497;28;1017;-43
2022/06/15 07:28:21;;;;;;;;;;;;;;;29.09;37.02;101141.13;5054092;28;1084;-43
2022/06/15 07:30:46;;;;;;;;;;;;;;;29.05;37.27;101146.06;5050744;28;1132;-43
2022/06/15 07:33:11;;;;;;;;;;;;;;;29.09;37.46;101150.06;5056037;28;1357;-42
2022/06/15 07:35:38;;;;;;;;;;;;;;;29.09;37.55;101146.53;5054956;28;1406;-42
2022/06/15 07:38:04;;;;;;;;;;;;;;;29.15;37.73;101147.63;5058109;28;1977;-42
2022/06/15 07:40:29;;;;;;;;;;;;;;;29.23;36.67;101144.81;5051382;28;1399;-43
2022/06/15 07:42:54;;;;;;;;;;;;;;;29.26;37.13;101155.28;5055883;28;1289;-42
2022/06/15 07:45:20;;;;;;;;;;;;;;;29.34;36.57;101155.19;5055260;28;1385;-42
2022/06/15 07:50:29;;;;;;;;;;;;;;;29.19;36.40;101151.66;5056773;28;1161;-41
2022/06/15 07:52:54;;;;;;;;;;;;;;;29.33;36.34;101150.81;5051848;28;1076;-42
2022/06/15 07:55:25;;;;;;;;;;;;;;;29.45;36.74;101147.59;5056984;28;1216;-43
2022/06/15 07:57:50;;;;;;;;;;;;;;;29.39;36.90;101149.22;5057867;28;1432;-43
2022/06/15 08:00:16;;;;;;;;;;;;;;;29.40;36.62;101150.88;5057361;28;1905;-43
2022/06/15 08:02:41;;;;;;;;;;;;;;;29.34;36.58;101151.66;5057698;28;1252;-43
2022/06/15 08:05:07;;;;;;;;;;;;;;;29.33;36.39;101152.66;5057320;28;1291;-43
2022/06/15 08:07:34;;;;;;;;;;;;;;;29.28;36.36;101150.53;5057161;28;1295;-43
2022/06/15 08:09:59;;;;;;;;;;;;;;;29.26;36.77;101151.75;5037723;28;1341;-43
2022/06/15 08:12:24;;;;;;;;;;;;;;;29.29;36.89;101152.22;5055996;28;1111;-43
2022/06/15 08:14:53;;;;;;;;;;;;;;;29.34;36.67;101159.78;5056149;28;1073;-44
2022/06/15 08:17:20;;;;;;;;;;;;;;;29.14;35.94;101157.66;5057075;28;1119;-43
2022/06/15 08:19:47;;;;;;;;;;;;;;;29.22;36.50;101154.00;5038511;28;1905;-43
2022/06/15 08:22:12;;;;;;;;;;;;;;;29.28;36.81;101152.41;5053122;28;1417;-43
2022/06/15 08:24:38;;;;;;;;;;;;;;;29.36;36.57;101155.03;5057491;28;1216;-43
2022/06/15 08:27:03;;;;;;;;;;;;;;;29.35;36.79;101164.16;5038525;28;1216;-42
2022/06/15 08:29:29;;;;;;;;;;;;;;;29.39;36.61;101160.06;5038698;28;1104;-43
2022/06/15 08:31:57;;;;;;;;;;;;;;;29.40;36.49;101160.88;5038934;28;1073;-39
2022/06/15 08:34:23;;;;;;;;;;;;;;;29.48;36.58;101157.25;5055319;28;1303;-42
2022/06/15 08:36:48;;;;;;;;;;;;;;;29.32;36.70;101161.84;5056388;28;1030;-42
2022/06/15 08:39:13;;;;;;;;;;;;;;;29.27;36.26;101164.25;5056473;28;1965;-43
2022/06/15 08:41:41;;;;;;;;;;;;;;;29.30;36.72;101163.88;5055179;28;1026;-43
2022/06/15 08:44:06;;;;;;;;;;;;;;;29.28;36.54;101168.66;5038759;28;1208;-43
2022/06/15 08:46:43;;;;;;;;;;;;;;;29.30;36.66;101169.31;5056612;28;1306;-43
2022/06/15 08:49:15;;;;;;;;;;;;;;;29.34;36.26;101167.91;5054064;28;1358;-43
2022/06/15 08:51:41;;;;;;;;;;;;;;;29.30;36.23;101169.31;5038262;28;1156;-43
2022/06/15 08:54:10;;;;;;;;;;;;;;;29.24;36.20;101170.06;5056259;28;1403;-42
2022/06/15 08:56:36;;;;;;;;;;;;;;;29.29;36.92;101165.78;5055114;28;1061;-43
2022/06/15 08:59:20;;;;;;;;;;;;;;;29.25;37.23;101169.03;5055571;28;1979;-42
2022/06/15 09:02:05;;;;;;;;;;;;;;;29.18;37.33;101167.06;5035102;28;1337;-42
2022/06/15 09:04:37;;;;;;;;;;;;;;;29.08;37.86;101167.34;5037899;28;1074;-43
2022/06/15 09:07:17;;;;;;;;;;;;;;;29.15;37.60;101177.44;5054971;28;1005;-43
2022/06/15 09:09:55;;;;;;;;;;;;;;;29.17;37.35;101178.94;5056591;28;1088;-43
2022/06/15 09:15:07;;;;;;;;;;;;;;;29.19;37.11;101176.91;5055433;28;1238;-42
2022/06/15 09:17:32;;;;;;;;;;;;;;;29.15;37.42;101178.28;5056847;28;962;-43
2022/06/15 09:20:03;;;;;;;;;;;;;;;28.98;36.93;101182.22;5030384;28;1902;-43
2022/06/15 09:22:29;;;;;;;;;;;;;;;29.06;37.09;101176.69;5051794;28;962;-43
2022/06/15 09:25:08;;;;;;;;;;;;;;;29.14;37.05;101182.03;5037814;28;1204;-43
2022/06/15 09:27:35;;;;;;;;;;;;;;;29.18;36.42;101185.19;5037027;28;1285;-43
2022/06/15 09:30:08;;;;;;;;;;;;;;;29.21;36.72;101185.66;5037607;28;1177;-43
2022/06/15 09:32:35;;;;;;;;;;;;;;;28.93;36.66;101186.25;5054420;28;1470;-43
2022/06/15 09:35:12;;;;;;;;;;;;;;;28.91;35.98;101179.38;5054747;28;1222;-43
2022/06/15 09:37:40;;;;;;;;;;;;;;;29.11;35.68;101182.41;5052654;28;1386;-42
2022/06/15 09:40:05;;;;;;;;;;;;;;;29.26;36.06;101187.78;5055380;28;1980;-43
2022/06/15 09:42:35;;;;;;;;;;;;;;;29.17;36.46;101186.22;5036331;28;1236;-42
2022/06/15 09:45:07;;;;;;;;;;;;;;;29.21;36.38;101187.53;5037538;28;1026;-43
2022/06/15 09:47:32;;;;;;;;;;;;;;;29.18;35.38;101186.03;5054843;28;1330;-42
2022/06/15 09:50:00;;;;;;;;;;;;;;;28.88;34.69;101191.38;5055432;28;997;-43
2022/06/15 09:52:31;;;;;;;;;;;;;;;28.68;35.32;101189.22;5055203;28;1363;-42
2022/06/15 09:55:02;;;;;;;;;;;;;;;28.82;34.96;101184.84;5038872;28;958;-43
2022/06/15 09:57:28;;;;;;;;;;;;;;;28.91;35.27;101190.19;5050533;28;873;-43
2022/06/15 09:59:53;;;;;;;;;;;;;;;29.00;35.02;101191.81;5056606;28;1984;-43
2022/06/15 10:02:23;;;;;;;;;;;;;;;29.09;34.93;101201.53;5056577;28;1096;-43
2022/06/15 10:04:49;;;;;;;;;;;;;;;29.19;35.48;101195.00;5035551;28;922;-42
2022/06/15 10:07:17;;;;;;;;;;;;;;;29.27;35.94;101188.66;5052913;28;907;-42
2022/06/15 10:09:45;;;;;;;;;;;;;;;29.16;34.54;101192.69;5038040;28;1006;-42
2022/06/15 10:15:12;;;;;;;;;;;;;;;29.14;35.57;101195.56;5053414;28;958;-43
2022/06/15 10:17:39;;;;;;;;;;;;;;;29.29;35.35;101194.72;5037584;28;1195;-43
2022/06/15 10:20:05;;;;;;;;;;;;;;;29.28;35.42;101196.59;5036392;28;1910;-44
2022/06/15 10:22:31;;;;;;;;;;;;;;;29.26;35.15;101200.53;5055997;28;1195;-43
2022/06/15 10:24:56;;;;;;;;;;;;;;;29.25;35.78;101196.09;5037219;28;1326;-43
2022/06/15 10:27:25;;;;;;;;;;;;;;;29.18;36.03;101193.31;5036202;28;1366;-43
2022/06/15 10:30:08;;;;;;;;;;;;;;;29.18;36.23;101196.88;5054367;28;1077;-43
2022/06/15 10:32:34;;;;;;;;;;;;;;;29.17;35.34;101187.06;5055513;28;1149;-43
2022/06/15 10:35:03;;;;;;;;;;;;;;;28.80;35.85;101196.88;5049466;28;1188;-43
2022/06/15 10:37:31;;;;;;;;;;;;;;;28.65;37.48;101189.56;5050369;28;1000;-43
2022/06/15 10:39:58;;;;;;;;;;;;;;;28.66;36.02;101188.53;5051746;28;2001;-43
2022/06/15 10:42:24;;;;;;;;;;;;;;;28.95;35.89;101186.06;5052488;28;1102;-43
2022/06/15 10:44:58;;;;;;;;;;;;;;;29.10;35.45;101183.41;5055145;28;1254;-43
2022/06/15 10:47:25;;;;;;;;;;;;;;;29.16;36.08;101185.38;5055295;28;1159;-42
2022/06/15 10:50:00;;;;;;;;;;;;;;;28.72;36.34;101185.13;5036385;28;1036;-42
2022/06/15 10:52:26;;;;;;;;;;;;;;;28.42;37.45;101179.63;5035765;28;1196;-43
2022/06/15 11:03:33;;;;;;;;;;;;;;;28.25;34.82;101189.69;4973656;28;1590;-43
2022/06/15 11:05:58;;;;;;;;;;;;;;;28.15;35.39;101186.38;4970782;28;1559;-42
2022/06/15 11:08:26;;;;;;;;;;;;;;;28.59;35.49;101191.13;5010990;28;1280;-42
2022/06/15 11:10:52;;;;;;;;;;;;;;;28.79;35.51;101184.38;5035910;28;1480;-41
2022/06/15 11:13:28;;;;;;;;;;;;;;;28.93;35.07;101188.97;5035464;28;1355;-42
2022/06/15 11:18:44;;;;;;;;;;;;;;;29.01;35.65;101184.53;5048193;28;1910;-43
2022/06/15 11:21:11;;;;;;;;;;;;;;;29.15;36.46;101183.69;5054339;28;1215;-42
2022/06/15 11:23:37;;;;;;;;;;;;;;;29.21;36.25;101188.38;5031578;28;1196;-43
2022/06/15 11:28:59;;;;;;;;;;;;;;;29.05;37.20;101186.69;5057715;28;1270;-43
2022/06/15 11:31:24;;;;;;;;;;;;;;;29.04;37.00;101187.72;5040544;28;1422;-43
2022/06/15 11:33:50;;;;;;;;;;;;;;;29.16;36.18;101189.97;5055203;28;1436;-43
2022/06/15 11:36:36;;;;;;;;;;;;;;;29.14;36.16;101192.88;5037624;28;1228;-43
2022/06/15 11:39:20;;;;;;;;;;;;;;;29.19;36.29;101190.44;5038780;28;1965;-43
2022/06/15 11:41:49;;;;;;;;;;;;;;;29.17;36.92;101189.78;5057439;28;1164;-43
2022/06/15 11:44:16;;;;;;;;;;;;;;;28.93;36.88;101186.25;5058243;28;1282;-43
2022/06/15 11:46:59;;;;;;;;;;;;;;;29.08;37.04;101186.31;5055413;28;1434;-42
2022/06/15 11:49:25;;;;;;;;;;;;;;;29.16;37.32;101190.78;5052038;28;1204;-43
2022/06/15 11:51:56;;;;;;;;;;;;;;;29.26;37.22;101190.50;5058910;28;1030;-43
2022/06/15 11:54:36;;;;;;;;;;;;;;;29.29;36.41;101192.00;5056386;28;1207;-43
2022/06/15 11:57:02;;;;;;;;;;;;;;;29.17;36.27;101194.34;5055663;28;1311;-42
2022/06/15 11:59:34;;;;;;;;;;;;;;;29.23;36.69;101188.16;5056907;28;1964;-42
2022/06/15 12:02:13;;;;;;;;;;;;;;;29.19;37.48;101201.28;5038271;28;1142;-43
2022/06/15 12:04:45;;;;;;;;;;;;;;;29.33;36.44;101196.03;5055943;28;1439;-42
2022/06/15 12:07:14;;;;;;;;;;;;;;;29.33;35.95;101202.28;5056014;28;1026;-42
2022/06/15 12:09:58;;;;;;;;;;;;;;;29.33;36.34;101204.16;5038662;28;1292;-42
2022/06/15 12:12:38;;;;;;;;;;;;;;;29.33;36.58;101202.28;5057179;28;1093;-43
2022/06/15 12:15:22;;;;;;;;;;;;;;;29.38;36.60;101198.19;5056729;28;1240;-41
2022/06/15 12:17:59;;;;;;;;;;;;;;;29.51;36.23;101201.06;5054381;28;1236;-43
2022/06/15 12:20:38;;;;;;;;;;;;;;;29.54;36.41;101208.84;5036571;28;1964;-42
2022/06/15 12:23:09;;;;;;;;;;;;;;;29.67;36.16;101199.19;5056923;28;1200;-42
2022/06/15 12:25:50;;;;;;;;;;;;;;;29.74;35.97;101197.44;5055750;28;1275;-41
2022/06/15 12:28:18;;;;;;;;;;;;;;;29.76;35.89;101194.53;5055057;28;1092;-43
2022/06/15 12:31:07;;;;;;;;;;;;;;;29.72;35.94;101191.34;5056560;28;1366;-42
2022/06/15 12:33:51;;;;;;;;;;;;;;;29.75;35.92;101193.66;5025260;28;2308;-34
2022/06/15 12:36:16;;;;;;;;;;;;;;;29.68;35.92;101185.47;5056663;28;1152;-40
2022/06/15 12:38:49;;;;;;;;;;;;;;;29.75;35.65;101188.25;5056328;28;1902;-40
2022/06/15 12:44:09;;;;;;;;;;;;;;;29.78;36.16;101177.00;5057274;28;1056;-40
2022/06/15 12:46:34;;;;;;;;;;;;;;;29.75;36.72;101171.13;5036238;28;1246;-39
2022/06/15 12:49:03;;;;;;;;;;;;;;;29.71;36.07;101173.41;5054615;28;1476;-36
2022/06/15 12:51:47;;;;;;;;;;;;;;;29.10;34.75;101172.56;5055206;28;1204;-36
2022/06/15 12:54:34;;;;;;;;;;;;;;;28.98;35.25;101174.91;5054992;28;1528;-37
2022/06/15 12:57:02;;;;;;;;;;;;;;;29.02;34.53;101162.69;5053874;28;1305;-35
2022/06/15 12:59:46;;;;;;;;;;;;;;;29.17;34.90;101153.72;5057120;28;1969;-35
2022/06/15 13:02:30;;;;;;;;;;;;;;;29.28;34.88;101141.56;5051739;28;1124;-37
2022/06/15 13:05:02;;;;;;;;;;;;;;;29.33;34.90;101150.81;5053543;28;985;-37
2022/06/15 13:07:28;;;;;;;;;;;;;;;29.45;35.09;101145.75;5054429;28;1145;-37
2022/06/15 13:10:12;;;;;;;;;;;;;;;29.45;35.16;101140.31;5056070;28;1283;-35
2022/06/15 13:12:44;;;;;;;;;;;;;;;29.36;34.98;101140.63;5055288;28;1138;-36
2022/06/15 13:15:27;;;;;;;;;;;;;;;29.29;34.88;101141.38;5054996;28;1246;-37
2022/06/15 13:18:05;;;;;;;;;;;;;;;29.32;34.83;101137.44;5038724;28;1081;-37
2022/06/15 13:20:31;;;;;;;;;;;;;;;29.35;34.99;101131.66;5053721;28;1271;-37
2022/06/15 13:22:56;;;;;;;;;;;;;;;29.40;34.86;101131.06;5038051;28;1646;-37